Spirit Of Oceanus — C6PJ8 — position and weather

sailwx.info

Track history (hours):
 
Tides and Currents Weather Stations Pressure Air Temp Water Temp Dewpoint Dewpoint Depression Visibility Wind Speed Wind Dir Waves Ship Positions

Spirit Of Oceanus

Last reported at 2017-May-24 02:58 UTC. Time now 2017-May-24 07:58 UTC.
Position N 65°07' W 053°08'.

Type: Passenger vessel. MMSI: 309224000.

Date/timePositionNaut miles runAvg speedWind from/ knotsBaromVisibWave heightAir tempDewpointWater temp
2017-May-24 02:58N 65°07' W 053°08'510.8
2017-May-24 02:30N 65°02' W 053°05'611.9
2017-May-24 02:00N 64°56' W 053°01'612.1
2017-May-24 01:30N 64°51' W 052°56'612.2
2017-May-24 01:00N 64°45' W 052°52'612.2
2017-May-24 00:31N 64°39' W 052°47'612.3
2017-May-24 00:00N 64°33' W 052°43'612.5
2017-May-23 23:30N 64°27' W 052°38'612.3
2017-May-23 23:00N 64°22' W 052°33'39 5.1
2017-May-23 15:23N 64°31' W 051°05'0 0.1
2017-May-23 15:00N 64°31' W 051°05'0 0.1
2017-May-23 14:29N 64°31' W 051°05'0 0.0
2017-May-23 13:30N 64°31' W 051°05'0 0.3
2017-May-23 13:00N 64°31' W 051°05'0 0.4
2017-May-23 12:30N 64°31' W 051°05'0 0.3
2017-May-23 12:00N 64°31' W 051°06'0 0.0
2017-May-23 11:30N 64°31' W 051°06'0 0.0
2017-May-23 11:01N 64°31' W 051°06'0 0.8
2017-May-23 10:30N 64°31' W 051°05'2 3.9
2017-May-23 10:00N 64°33' W 051°04'2 3.9
2017-May-23 09:30N 64°34' W 051°07'4 3.6
2017-May-23 08:31N 64°34' W 051°15'0 3.8
2017-May-23 08:28N 64°34' W 051°15'2 3.6
2017-May-23 08:00N 64°34' W 051°19'2 3.3
2017-May-23 07:30N 64°33' W 051°21'2 3.4
2017-May-23 07:00N 64°31' W 051°23'2 3.4
2017-May-23 06:30N 64°30' W 051°24'2 3.5
2017-May-23 06:00N 64°28' W 051°26'2 3.6
2017-May-23 05:30N 64°27' W 051°28'2 3.5
2017-May-23 05:00N 64°25' W 051°31'2 3.5
2017-May-23 04:30N 64°24' W 051°33'2 3.6
2017-May-23 04:00N 64°22' W 051°36'2 3.6
2017-May-23 03:30N 64°21' W 051°38'2 3.6
2017-May-23 03:00N 64°19' W 051°38'2 3.5
2017-May-23 02:30N 64°17' W 051°39'2 3.7
2017-May-23 02:01N 64°16' W 051°41'2 3.6
2017-May-23 01:31N 64°14' W 051°43'2 3.6
2017-May-23 01:00N 64°13' W 051°45'2 3.6
2017-May-23 00:30N 64°11' W 051°47'1 2.6
2017-May-23 00:00N 64°10' W 051°46'1 2.8
2017-May-22 23:29N 64°10' W 051°43'0 0.0
2017-May-22 22:59N 64°10' W 051°43'0 0.0
2017-May-22 22:29N 64°10' W 051°43'0 0.0
2017-May-22 21:59N 64°10' W 051°43'0 0.0
2017-May-22 21:29N 64°10' W 051°43'0 0.0
2017-May-22 20:59N 64°10' W 051°43'0 0.0
2017-May-22 20:29N 64°10' W 051°43'0 0.0
2017-May-22 19:59N 64°10' W 051°43'0 0.0
2017-May-22 19:29N 64°10' W 051°43'0 0.0
2017-May-22 18:59N 64°10' W 051°43'0 0.0
2017-May-22 18:29N 64°10' W 051°43'0 0.0
2017-May-22 17:59N 64°10' W 051°43'0 0.0
2017-May-22 17:29N 64°10' W 051°43'0 0.0
2017-May-22 16:59N 64°10' W 051°43'0 0.0
2017-May-22 16:29N 64°10' W 051°43'0 0.0
2017-May-22 15:59N 64°10' W 051°43'0 0.0
2017-May-22 15:29N 64°10' W 051°43'0 0.0
2017-May-22 14:59N 64°10' W 051°43'0 0.0
2017-May-22 13:59N 64°10' W 051°43'0 0.0
2017-May-22 13:29N 64°10' W 051°43'0 0.0
2017-May-22 12:59N 64°10' W 051°43'0 0.0
2017-May-22 12:29N 64°10' W 051°43'0 0.0
2017-May-22 11:59N 64°10' W 051°43'0 0.0
2017-May-22 11:29N 64°10' W 051°43'0 0.0
2017-May-22 10:59N 64°10' W 051°43'0 0.0
2017-May-22 10:26N 64°10' W 051°43'0 0.0
2017-May-22 10:00N 64°10' W 051°43'0 0.0
2017-May-22 09:30N 64°10' W 051°43'0 0.0
2017-May-22 09:00N 64°10' W 051°43'0 0.8
2017-May-22 08:30N 64°10' W 051°43'3 5.5
2017-May-22 08:00N 64°09' W 051°49'3 6.9
2017-May-22 07:30N 64°07' W 051°56'4 7.1
2017-May-22 07:00N 64°05' W 052°03'510.7
2017-May-22 06:30N 64°03' W 052°14'4 7.3
2017-May-22 06:00N 63°60' W 052°18'3 5.9
2017-May-22 05:31N 63°57' W 052°16'3 6.2
2017-May-22 05:01N 63°54' W 052°13'3 6.3
2017-May-22 04:30N 63°51' W 052°10'3 6.6
2017-May-22 04:00N 63°48' W 052°07'3 6.5
2017-May-22 03:30N 63°45' W 052°04'3 6.6
2017-May-22 03:00N 63°42' W 052°01'3 6.9
2017-May-22 02:30N 63°39' W 051°58'3 6.7
2017-May-22 02:00N 63°36' W 051°55'3 7.0
2017-May-22 01:30N 63°33' W 051°53'4 7.1
2017-May-22 01:00N 63°29' W 051°49'4 6.8
2017-May-22 00:28N 63°26' W 051°46'  
Track history (hours):
 
Tides and Currents Weather Stations Pressure Air Temp Water Temp Dewpoint Dewpoint Depression Visibility Wind Speed Wind Dir Waves Ship Positions

Spirit Of Oceanus

Last reported at 2017-May-24 02:58 UTC. Time now 2017-May-24 07:58 UTC.
Position N 65°07' W 053°08'.

Type: Passenger vessel. MMSI: 309224000.

Date/timePositionNaut miles runAvg speedWind from/ knotsBaromVisibWave heightAir tempDewpointWater temp
2017-May-24 02:58N 65°07' W 053°08'510.8
2017-May-24 02:30N 65°02' W 053°05'611.9
2017-May-24 02:00N 64°56' W 053°01'612.1
2017-May-24 01:30N 64°51' W 052°56'612.2
2017-May-24 01:00N 64°45' W 052°52'612.2
2017-May-24 00:31N 64°39' W 052°47'612.3
2017-May-24 00:00N 64°33' W 052°43'612.5
2017-May-23 23:30N 64°27' W 052°38'612.3
2017-May-23 23:00N 64°22' W 052°33'39 5.1
2017-May-23 15:23N 64°31' W 051°05'0 0.1
2017-May-23 15:00N 64°31' W 051°05'0 0.1
2017-May-23 14:29N 64°31' W 051°05'0 0.0
2017-May-23 13:30N 64°31' W 051°05'0 0.3
2017-May-23 13:00N 64°31' W 051°05'0 0.4
2017-May-23 12:30N 64°31' W 051°05'0 0.3
2017-May-23 12:00N 64°31' W 051°06'0 0.0
2017-May-23 11:30N 64°31' W 051°06'0 0.0
2017-May-23 11:01N 64°31' W 051°06'0 0.8
2017-May-23 10:30N 64°31' W 051°05'2 3.9
2017-May-23 10:00N 64°33' W 051°04'2 3.9
2017-May-23 09:30N 64°34' W 051°07'4 3.6
2017-May-23 08:31N 64°34' W 051°15'0 3.8
2017-May-23 08:28N 64°34' W 051°15'2 3.6
2017-May-23 08:00N 64°34' W 051°19'2 3.3
2017-May-23 07:30N 64°33' W 051°21'2 3.4
2017-May-23 07:00N 64°31' W 051°23'2 3.4
2017-May-23 06:30N 64°30' W 051°24'2 3.5
2017-May-23 06:00N 64°28' W 051°26'2 3.6
2017-May-23 05:30N 64°27' W 051°28'2 3.5
2017-May-23 05:00N 64°25' W 051°31'2 3.5
2017-May-23 04:30N 64°24' W 051°33'2 3.6
2017-May-23 04:00N 64°22' W 051°36'2 3.6
2017-May-23 03:30N 64°21' W 051°38'2 3.6
2017-May-23 03:00N 64°19' W 051°38'2 3.5
2017-May-23 02:30N 64°17' W 051°39'2 3.7
2017-May-23 02:01N 64°16' W 051°41'2 3.6
2017-May-23 01:31N 64°14' W 051°43'2 3.6
2017-May-23 01:00N 64°13' W 051°45'2 3.6
2017-May-23 00:30N 64°11' W 051°47'1 2.6
2017-May-23 00:00N 64°10' W 051°46'1 2.8
2017-May-22 23:29N 64°10' W 051°43'0 0.0
2017-May-22 22:59N 64°10' W 051°43'0 0.0
2017-May-22 22:29N 64°10' W 051°43'0 0.0
2017-May-22 21:59N 64°10' W 051°43'0 0.0
2017-May-22 21:29N 64°10' W 051°43'0 0.0
2017-May-22 20:59N 64°10' W 051°43'0 0.0
2017-May-22 20:29N 64°10' W 051°43'0 0.0
2017-May-22 19:59N 64°10' W 051°43'0 0.0
2017-May-22 19:29N 64°10' W 051°43'0 0.0
2017-May-22 18:59N 64°10' W 051°43'0 0.0
2017-May-22 18:29N 64°10' W 051°43'0 0.0
2017-May-22 17:59N 64°10' W 051°43'0 0.0
2017-May-22 17:29N 64°10' W 051°43'0 0.0
2017-May-22 16:59N 64°10' W 051°43'0 0.0
2017-May-22 16:29N 64°10' W 051°43'0 0.0
2017-May-22 15:59N 64°10' W 051°43'0 0.0
2017-May-22 15:29N 64°10' W 051°43'0 0.0
2017-May-22 14:59N 64°10' W 051°43'0 0.0
2017-May-22 13:59N 64°10' W 051°43'0 0.0
2017-May-22 13:29N 64°10' W 051°43'0 0.0
2017-May-22 12:59N 64°10' W 051°43'0 0.0
2017-May-22 12:29N 64°10' W 051°43'0 0.0
2017-May-22 11:59N 64°10' W 051°43'0 0.0
2017-May-22 11:29N 64°10' W 051°43'0 0.0
2017-May-22 10:59N 64°10' W 051°43'0 0.0
2017-May-22 10:26N 64°10' W 051°43'0 0.0
2017-May-22 10:00N 64°10' W 051°43'0 0.0
2017-May-22 09:30N 64°10' W 051°43'0 0.0
2017-May-22 09:00N 64°10' W 051°43'0 0.8
2017-May-22 08:30N 64°10' W 051°43'3 5.5
2017-May-22 08:00N 64°09' W 051°49'3 6.9
2017-May-22 07:30N 64°07' W 051°56'4 7.1
2017-May-22 07:00N 64°05' W 052°03'510.7
2017-May-22 06:30N 64°03' W 052°14'4 7.3
2017-May-22 06:00N 63°60' W 052°18'3 5.9
2017-May-22 05:31N 63°57' W 052°16'3 6.2
2017-May-22 05:01N 63°54' W 052°13'3 6.3
2017-May-22 04:30N 63°51' W 052°10'3 6.6
2017-May-22 04:00N 63°48' W 052°07'3 6.5
2017-May-22 03:30N 63°45' W 052°04'3 6.6
2017-May-22 03:00N 63°42' W 052°01'3 6.9
2017-May-22 02:30N 63°39' W 051°58'3 6.7
2017-May-22 02:00N 63°36' W 051°55'3 7.0
2017-May-22 01:30N 63°33' W 051°53'4 7.1
2017-May-22 01:00N 63°29' W 051°49'4 6.8
2017-May-22 00:28N 63°26' W 051°46'  

Dump ship's entire track history